createdAt,value
2019-05-17T00:02:22.811Z,11.93
2019-05-17T00:04:52.905Z,11.70
2019-05-17T00:07:23.018Z,12.03
2019-05-17T00:09:53.173Z,12.57
2019-05-17T00:12:23.361Z,11.80
2019-05-17T00:14:53.308Z,12.63
2019-05-17T00:17:23.421Z,12.43
2019-05-17T00:19:53.586Z,12.57
2019-05-17T00:22:23.669Z,12.80
2019-05-17T00:24:53.750Z,12.70
2019-05-17T00:27:23.791Z,13.00
2019-05-17T00:29:53.881Z,12.73
2019-05-17T00:32:23.834Z,13.87
2019-05-17T00:34:56.289Z,12.20
2019-05-17T00:37:26.452Z,12.87
2019-05-17T00:39:56.825Z,13.20
2019-05-17T00:42:26.869Z,12.57
2019-05-17T00:44:56.945Z,12.80
2019-05-17T00:47:26.960Z,11.90
2019-05-17T00:49:57.141Z,12.70
2019-05-17T00:52:27.392Z,12.50
2019-05-17T00:54:57.499Z,12.00
2019-05-17T00:57:27.646Z,11.70
2019-05-17T00:59:57.674Z,12.20
2019-05-17T01:02:27.802Z,12.30
2019-05-17T01:04:57.803Z,10.97
2019-05-17T01:07:27.946Z,11.77
2019-05-17T01:09:58.049Z,11.43
2019-05-17T01:12:28.265Z,11.47
2019-05-17T01:14:58.475Z,10.73
2019-05-17T01:17:28.593Z,11.13
2019-05-17T01:19:58.660Z,11.17
2019-05-17T01:22:28.727Z,10.63
2019-05-17T01:24:58.798Z,11.27
2019-05-17T01:27:28.883Z,10.70
2019-05-17T01:29:58.905Z,10.87
2019-05-17T01:32:29.012Z,11.53
2019-05-17T01:34:59.022Z,10.97
2019-05-17T01:37:29.141Z,11.47
2019-05-17T01:39:59.280Z,10.07
2019-05-17T01:42:29.376Z,11.33
2019-05-17T01:44:59.395Z,11.50
2019-05-17T01:47:31.617Z,11.00
2019-05-17T01:50:01.652Z,10.17
2019-05-17T01:52:31.810Z,11.03
2019-05-17T01:55:01.753Z,10.07
2019-05-17T01:57:32.117Z,10.23
2019-05-17T02:00:02.147Z,10.90
2019-05-17T02:02:36.623Z,11.10
2019-05-17T02:05:07.435Z,11.00
2019-05-17T02:07:37.622Z,10.60
2019-05-17T02:10:08.554Z,9.97
2019-05-17T02:12:38.733Z,10.63
2019-05-17T02:15:10.391Z,10.50
2019-05-17T02:17:40.557Z,10.40
2019-05-17T02:20:11.802Z,10.30
2019-05-17T02:22:41.959Z,10.43
2019-05-17T02:25:12.977Z,10.20
2019-05-17T02:27:44.699Z,10.23
2019-05-17T02:30:16.177Z,10.53
2019-05-17T02:32:47.324Z,9.87
2019-05-17T02:35:17.485Z,10.33
2019-05-17T02:37:47.561Z,11.00
2019-05-17T02:40:18.503Z,11.00
2019-05-17T02:42:48.668Z,12.23
2019-05-17T02:45:23.202Z,10.03
2019-05-17T02:47:53.744Z,10.17
2019-05-17T02:50:26.249Z,10.87
2019-05-17T02:52:56.341Z,9.83
2019-05-17T02:55:26.486Z,10.80
2019-05-17T02:57:56.558Z,9.90
2019-05-17T03:00:26.746Z,10.87
2019-05-17T03:02:56.863Z,10.57
2019-05-17T03:05:26.884Z,10.57
2019-05-17T03:07:57.069Z,9.90
2019-05-17T03:10:29.057Z,10.87
2019-05-17T03:12:59.146Z,10.17
2019-05-17T03:15:32.171Z,10.70
2019-05-17T03:18:03.619Z,10.23
2019-05-17T03:20:33.246Z,10.93
2019-05-17T03:23:04.193Z,10.17
2019-05-17T03:25:34.410Z,10.73
2019-05-17T03:28:04.599Z,9.87
2019-05-17T03:30:37.285Z,10.30
2019-05-17T03:33:08.183Z,10.03
2019-05-17T03:35:38.940Z,9.93
2019-05-17T03:38:09.047Z,9.47
2019-05-17T03:41:03.443Z,10.07
2019-05-17T03:43:13.867Z,10.00
2019-05-17T03:45:42.866Z,11.00
2019-05-17T03:48:13.152Z,9.60
2019-05-17T03:50:43.728Z,10.27
2019-05-17T03:53:14.069Z,8.87
2019-05-17T03:55:44.177Z,10.87
2019-05-17T03:58:14.453Z,9.77
2019-05-17T04:00:44.721Z,9.87
2019-05-17T04:03:14.879Z,9.27
2019-05-17T04:05:45.963Z,10.63
2019-05-17T04:08:16.142Z,12.73
2019-05-17T04:10:46.260Z,10.30
2019-05-17T04:13:16.284Z,9.80
2019-05-17T04:15:46.459Z,9.03
2019-05-17T04:18:16.624Z,9.67
2019-05-17T04:20:46.791Z,10.70
2019-05-17T04:23:16.946Z,9.03
2019-05-17T04:25:47.122Z,9.77
2019-05-17T04:28:17.264Z,9.80
2019-05-17T04:30:47.414Z,10.67
2019-05-17T04:33:17.626Z,9.27
2019-05-17T04:35:47.817Z,8.97
2019-05-17T04:38:17.882Z,8.93
2019-05-17T04:40:48.069Z,9.27
2019-05-17T04:43:18.111Z,9.20
2019-05-17T04:45:48.177Z,7.93
2019-05-17T04:48:18.429Z,8.17
2019-05-17T04:50:48.509Z,10.27
2019-05-17T04:53:18.682Z,8.63
2019-05-17T04:55:48.764Z,8.93
2019-05-17T04:58:18.960Z,8.73
2019-05-17T05:00:49.048Z,8.40
2019-05-17T05:03:19.160Z,8.67
2019-05-17T05:05:49.467Z,8.40
2019-05-17T05:08:22.377Z,8.70
2019-05-17T05:10:53.540Z,8.17
2019-05-17T05:13:23.348Z,8.00
2019-05-17T05:15:53.472Z,9.03
2019-05-17T05:18:23.585Z,8.50
2019-05-17T05:20:53.609Z,8.30
2019-05-17T05:23:24.118Z,8.17
2019-05-17T05:25:54.264Z,8.30
2019-05-17T05:28:24.383Z,7.60
2019-05-17T05:30:54.350Z,7.47
2019-05-17T05:33:24.386Z,7.60
2019-05-17T05:35:54.497Z,8.17
2019-05-17T05:38:24.613Z,7.20
2019-05-17T05:40:54.715Z,7.60
2019-05-17T05:43:24.744Z,7.10
2019-05-17T05:45:54.876Z,7.08
2019-05-17T05:48:25.042Z,8.20
2019-05-17T05:50:55.229Z,6.97
2019-05-17T05:53:25.402Z,8.17
2019-05-17T05:55:55.517Z,7.70
2019-05-17T05:58:25.536Z,7.23
2019-05-17T06:00:55.737Z,7.07
2019-05-17T06:03:25.826Z,6.77
2019-05-17T06:05:55.820Z,6.87
2019-05-17T06:08:25.910Z,6.27
2019-05-17T06:10:56.010Z,7.13
2019-05-17T06:13:25.964Z,7.00
2019-05-17T06:15:55.979Z,6.57
2019-05-17T06:18:25.994Z,7.00
2019-05-17T06:20:56.088Z,6.83
2019-05-17T06:23:26.205Z,6.27
2019-05-17T06:25:56.249Z,7.10
2019-05-17T06:28:26.364Z,5.73
2019-05-17T06:30:56.535Z,5.63
2019-05-17T06:33:30.850Z,5.40
2019-05-17T06:35:58.291Z,5.93
2019-05-17T06:38:28.356Z,5.33
2019-05-17T06:40:58.404Z,5.40
2019-05-17T06:43:28.416Z,5.53
2019-05-17T06:45:58.441Z,5.37
2019-05-17T06:48:28.522Z,5.43
2019-05-17T06:50:58.544Z,5.43
2019-05-17T06:53:28.651Z,6.40
2019-05-17T06:55:58.735Z,6.20
2019-05-17T06:58:31.112Z,6.07
2019-05-17T07:01:00.857Z,5.97
2019-05-17T07:03:30.934Z,6.20
2019-05-17T07:06:02.864Z,5.77
2019-05-17T07:08:33.032Z,5.43
2019-05-17T07:11:03.065Z,5.63
2019-05-17T07:13:33.140Z,5.93
2019-05-17T07:16:03.163Z,5.20
2019-05-17T07:18:33.185Z,5.00
2019-05-17T07:21:03.682Z,5.00
2019-05-17T07:23:33.646Z,5.40
2019-05-17T07:26:03.812Z,5.50
2019-05-17T07:28:33.919Z,5.10
2019-05-17T07:31:04.067Z,4.87
2019-05-17T07:33:33.984Z,5.13
2019-05-17T07:36:04.171Z,4.70
2019-05-17T07:38:34.241Z,4.93
2019-05-17T07:41:04.420Z,5.50
2019-05-17T07:43:34.378Z,5.53
2019-05-17T07:46:04.470Z,5.23
2019-05-17T07:48:34.475Z,5.20
2019-05-17T07:51:04.631Z,5.33
2019-05-17T07:53:34.631Z,5.27
2019-05-17T07:56:04.642Z,5.20
2019-05-17T07:58:34.571Z,5.13
2019-05-17T08:01:04.768Z,5.00
2019-05-17T08:03:34.830Z,4.63
2019-05-17T08:06:05.009Z,5.03
2019-05-17T08:08:35.005Z,5.20
2019-05-17T08:11:05.120Z,4.80
2019-05-17T08:13:35.115Z,4.70
2019-05-17T08:16:05.287Z,4.57
2019-05-17T08:18:35.427Z,5.20
2019-05-17T08:21:05.514Z,5.30
2019-05-17T08:23:35.602Z,5.23
2019-05-17T08:26:05.784Z,4.80
2019-05-17T08:28:35.943Z,5.47
2019-05-17T08:31:06.087Z,4.97
2019-05-17T08:33:36.222Z,4.93
2019-05-17T08:36:06.323Z,5.03
2019-05-17T08:38:36.481Z,5.60
2019-05-17T08:41:06.640Z,5.50
2019-05-17T08:43:45.887Z,4.77
2019-05-17T08:46:10.606Z,4.80
2019-05-17T08:48:40.454Z,5.10
2019-05-17T08:51:10.896Z,5.23
2019-05-17T08:53:41.003Z,5.27
2019-05-17T08:56:11.096Z,5.00
2019-05-17T08:58:41.180Z,5.30
2019-05-17T09:01:11.424Z,5.50
2019-05-17T09:03:41.427Z,5.10
2019-05-17T09:06:12.714Z,5.27
2019-05-17T09:08:42.842Z,5.57
2019-05-17T09:11:13.005Z,5.63
2019-05-17T09:13:54.643Z,5.40
2019-05-17T09:16:15.040Z,5.77
2019-05-17T09:18:45.067Z,5.63
2019-05-17T09:21:15.471Z,5.85
2019-05-17T09:23:45.534Z,5.30
2019-05-17T09:26:15.867Z,5.70
2019-05-17T09:28:45.956Z,5.77
2019-05-17T09:31:15.988Z,5.30
2019-05-17T09:33:45.989Z,5.70
2019-05-17T09:36:16.288Z,6.43
2019-05-17T09:38:46.363Z,5.63
2019-05-17T09:41:16.555Z,6.07
2019-05-17T09:43:46.620Z,6.50
2019-05-17T09:46:16.694Z,5.20
2019-05-17T09:48:47.131Z,5.93
2019-05-17T09:51:19.498Z,5.73
2019-05-17T09:53:49.683Z,6.37
2019-05-17T09:56:20.668Z,6.47
2019-05-17T09:58:50.820Z,5.57
2019-05-17T10:01:21.108Z,6.20
2019-05-17T10:03:51.194Z,5.33
2019-05-17T10:06:21.357Z,6.23
2019-05-17T10:08:51.486Z,5.73
2019-05-17T10:11:21.481Z,6.07
2019-05-17T10:13:51.559Z,5.83
2019-05-17T10:16:21.747Z,5.70
2019-05-17T10:18:51.752Z,5.83
2019-05-17T10:21:21.924Z,5.70
2019-05-17T10:23:52.007Z,5.10
2019-05-17T10:26:22.107Z,5.13
2019-05-17T10:28:52.240Z,5.57
2019-05-17T10:31:22.407Z,5.33
2019-05-17T10:33:52.689Z,5.50
2019-05-17T10:36:22.763Z,6.03
2019-05-17T10:38:52.758Z,5.47
2019-05-17T10:41:22.902Z,5.60
2019-05-17T10:43:53.055Z,5.63
2019-05-17T10:46:23.141Z,6.07
2019-05-17T10:48:53.212Z,5.67
2019-05-17T10:51:23.362Z,5.50
2019-05-17T10:53:53.310Z,6.17
2019-05-17T10:56:23.930Z,5.90
2019-05-17T10:58:54.134Z,5.93
2019-05-17T11:01:24.278Z,6.40
2019-05-17T11:03:54.369Z,5.60
2019-05-17T11:06:24.512Z,6.03
2019-05-17T11:08:54.526Z,5.60
2019-05-17T11:11:24.602Z,6.10
2019-05-17T11:13:54.751Z,5.90
2019-05-17T11:16:24.828Z,5.93
2019-05-17T11:18:54.987Z,5.37
2019-05-17T11:21:25.138Z,4.87
2019-05-17T11:23:55.324Z,5.23
2019-05-17T11:26:25.464Z,5.13
2019-05-17T11:28:55.536Z,5.67
2019-05-17T11:31:25.636Z,5.67
2019-05-17T11:33:55.723Z,5.37
2019-05-17T11:36:25.869Z,5.17
2019-05-17T11:38:55.884Z,5.53
2019-05-17T11:41:27.259Z,5.73
2019-05-17T11:43:57.198Z,5.67
2019-05-17T11:46:35.873Z,5.57
2019-05-17T11:48:59.093Z,5.13
2019-05-17T11:51:29.175Z,5.40
2019-05-17T11:53:59.135Z,4.97
2019-05-17T11:56:29.212Z,5.30
2019-05-17T11:58:59.293Z,5.80
2019-05-17T12:01:29.369Z,5.40
2019-05-17T12:03:59.377Z,5.77
2019-05-17T12:06:29.536Z,5.43
2019-05-17T12:08:59.998Z,5.63
2019-05-17T12:11:30.340Z,4.93
2019-05-17T12:14:00.719Z,5.20
2019-05-17T12:16:31.170Z,5.97
2019-05-17T12:19:01.901Z,5.67
2019-05-17T12:21:32.438Z,5.40
2019-05-17T12:24:03.018Z,5.67
2019-05-17T12:26:33.635Z,5.53
2019-05-17T12:29:03.787Z,5.83
2019-05-17T12:31:34.085Z,5.87
2019-05-17T12:34:04.275Z,5.27
2019-05-17T12:36:34.292Z,5.80
2019-05-17T12:39:05.529Z,6.17
2019-05-17T12:41:35.678Z,6.00
2019-05-17T12:44:05.859Z,5.90
2019-05-17T12:46:36.076Z,5.90
2019-05-17T12:49:06.325Z,5.00
2019-05-17T12:51:36.434Z,4.73
2019-05-17T12:54:06.684Z,4.97
2019-05-17T12:56:36.791Z,5.70
2019-05-17T12:59:07.083Z,4.90
2019-05-17T13:01:37.342Z,4.50
2019-05-17T13:04:07.341Z,4.70
2019-05-17T13:06:37.446Z,4.47
2019-05-17T13:09:08.148Z,4.73
2019-05-17T13:11:38.447Z,4.83
2019-05-17T13:14:08.653Z,4.40
2019-05-17T13:16:38.774Z,4.50
2019-05-17T13:19:09.232Z,4.63
2019-05-17T13:21:39.407Z,5.10
2019-05-17T13:24:09.623Z,4.27
2019-05-17T13:26:39.747Z,4.27
2019-05-17T13:29:10.244Z,4.73
2019-05-17T13:31:40.417Z,4.37
2019-05-17T13:34:10.596Z,4.20
2019-05-17T13:36:40.675Z,4.37
2019-05-17T13:39:10.935Z,4.17
2019-05-17T13:41:41.387Z,3.80
2019-05-17T13:44:11.627Z,3.50
2019-05-17T13:46:41.693Z,4.63
2019-05-17T13:49:12.171Z,3.90
2019-05-17T13:51:42.311Z,3.27
2019-05-17T13:54:12.646Z,3.93
2019-05-17T13:56:42.947Z,4.42
2019-05-17T13:59:13.245Z,3.80
2019-05-17T14:01:43.573Z,2.60
2019-05-17T14:04:13.831Z,2.33
2019-05-17T14:06:44.045Z,2.70
2019-05-17T14:09:14.244Z,2.60
2019-05-17T14:11:44.363Z,2.53
2019-05-17T14:14:14.641Z,3.10
2019-05-17T14:16:44.737Z,3.00
2019-05-17T14:19:14.967Z,3.30
2019-05-17T14:21:45.138Z,3.00
2019-05-17T14:24:15.473Z,3.67
2019-05-17T14:26:45.607Z,3.60
2019-05-17T14:29:16.015Z,3.23
2019-05-17T14:31:46.220Z,3.60
2019-05-17T14:34:16.364Z,4.03
2019-05-17T14:36:46.428Z,3.60
2019-05-17T14:39:17.915Z,3.90
2019-05-17T14:41:48.145Z,4.23
2019-05-17T14:44:18.335Z,3.50
2019-05-17T14:46:48.368Z,3.63
2019-05-17T14:49:18.626Z,3.70
2019-05-17T14:51:48.827Z,3.90
2019-05-17T14:54:19.021Z,3.37
2019-05-17T14:56:49.196Z,3.97
2019-05-17T14:59:19.337Z,4.00
2019-05-17T15:01:50.528Z,3.80
2019-05-17T15:04:20.626Z,3.90
2019-05-17T15:06:50.744Z,3.70
2019-05-17T15:09:20.865Z,3.73
2019-05-17T15:11:52.507Z,4.03
2019-05-17T15:14:22.617Z,4.30
2019-05-17T15:16:52.788Z,4.63
2019-05-17T15:19:23.022Z,4.33
2019-05-17T15:21:53.320Z,3.93
2019-05-17T15:24:23.413Z,4.37
2019-05-17T15:27:04.791Z,4.60
2019-05-17T15:29:25.533Z,4.20
2019-05-17T15:31:55.775Z,4.43
2019-05-17T15:34:25.997Z,4.43
2019-05-17T15:36:56.215Z,4.57
2019-05-17T15:39:26.621Z,4.87
2019-05-17T15:41:56.902Z,4.90
2019-05-17T15:44:27.252Z,5.13
2019-05-17T15:46:57.537Z,4.93
2019-05-17T15:49:27.583Z,5.67
2019-05-17T15:51:57.805Z,6.10
2019-05-17T15:54:28.035Z,5.83
2019-05-17T15:56:58.300Z,5.43
2019-05-17T15:59:28.564Z,5.37
2019-05-17T16:01:58.854Z,5.30
2019-05-17T16:04:28.950Z,5.63
2019-05-17T16:06:59.179Z,5.63
2019-05-17T16:09:29.339Z,5.77
2019-05-17T16:11:59.572Z,5.90
2019-05-17T16:14:29.779Z,5.20
2019-05-17T16:16:59.897Z,6.23
2019-05-17T16:19:29.996Z,5.90
2019-05-17T16:22:00.321Z,6.30
2019-05-17T16:24:30.592Z,6.17
2019-05-17T16:27:00.636Z,5.93
2019-05-17T16:29:30.873Z,6.73
2019-05-17T16:32:01.015Z,6.57
2019-05-17T16:34:31.215Z,7.03
2019-05-17T16:37:01.483Z,7.20
2019-05-17T16:39:31.716Z,7.30
2019-05-17T16:42:01.966Z,7.23
2019-05-17T16:44:32.056Z,8.10
2019-05-17T16:47:02.285Z,8.13
2019-05-17T16:49:32.479Z,7.90
2019-05-17T16:52:03.432Z,8.13
2019-05-17T16:54:33.573Z,7.80
2019-05-17T16:57:03.881Z,8.77
2019-05-17T16:59:34.085Z,8.93
2019-05-17T17:02:04.436Z,8.80
2019-05-17T17:04:34.611Z,8.20
2019-05-17T17:07:04.857Z,9.03
2019-05-17T17:09:35.015Z,8.67
2019-05-17T17:12:05.232Z,8.93
2019-05-17T17:14:35.459Z,8.00
2019-05-17T17:17:11.574Z,9.03
2019-05-17T17:19:37.700Z,9.40
2019-05-17T17:22:07.878Z,8.50
2019-05-17T17:24:37.995Z,9.47
2019-05-17T17:27:08.280Z,8.40
2019-05-17T17:29:38.414Z,8.07
2019-05-17T17:32:20.813Z,9.83
2019-05-17T17:34:40.239Z,9.03
2019-05-17T17:37:10.284Z,9.57
2019-05-17T17:39:40.568Z,9.50
2019-05-17T17:42:10.694Z,9.93
2019-05-17T17:44:40.800Z,10.37
2019-05-17T17:47:10.969Z,9.67
2019-05-17T17:49:41.009Z,9.60
2019-05-17T17:52:11.302Z,9.33
2019-05-17T17:54:41.764Z,9.10
2019-05-17T17:57:12.005Z,9.97
2019-05-17T17:59:42.211Z,9.97
2019-05-17T18:02:12.392Z,10.47
2019-05-17T18:04:48.221Z,9.63
2019-05-17T18:07:18.393Z,10.00
2019-05-17T18:09:48.576Z,9.50
2019-05-17T18:12:18.588Z,9.37
2019-05-17T18:14:48.826Z,9.57
2019-05-17T18:17:18.933Z,9.87
2019-05-17T18:19:49.052Z,9.50
2019-05-17T18:22:19.192Z,9.40
2019-05-17T18:24:49.362Z,9.93
2019-05-17T18:27:19.530Z,10.17
2019-05-17T18:29:49.662Z,9.60
2019-05-17T18:32:19.866Z,10.20
2019-05-17T18:34:50.084Z,10.13
2019-05-17T18:37:20.187Z,9.87
2019-05-17T18:39:50.246Z,9.13
2019-05-17T18:42:20.481Z,8.70
2019-05-17T18:44:50.666Z,9.30
2019-05-17T18:47:20.855Z,7.97
2019-05-17T18:49:51.004Z,8.33
2019-05-17T18:52:21.092Z,8.30
2019-05-17T18:54:51.263Z,8.20
2019-05-17T18:57:21.290Z,8.47
2019-05-17T18:59:51.470Z,7.70
2019-05-17T19:02:21.628Z,7.60
2019-05-17T19:04:51.793Z,8.67
2019-05-17T19:07:24.584Z,8.03
2019-05-17T19:09:54.785Z,7.53
2019-05-17T19:12:25.015Z,7.63
2019-05-17T19:14:55.115Z,7.53
2019-05-17T19:17:25.340Z,8.03
2019-05-17T19:19:55.369Z,7.77
2019-05-17T19:22:25.518Z,7.87
2019-05-17T19:24:55.763Z,8.17
2019-05-17T19:27:26.058Z,8.37
2019-05-17T19:29:56.186Z,8.33
2019-05-17T19:32:26.289Z,8.60
2019-05-17T19:34:56.368Z,7.97
2019-05-17T19:37:26.603Z,7.57
2019-05-17T19:39:56.713Z,8.50
2019-05-17T19:42:26.834Z,8.00
2019-05-17T19:44:59.437Z,7.30
2019-05-17T19:47:28.775Z,8.30
2019-05-17T19:49:58.934Z,7.70
2019-05-17T19:52:29.084Z,7.87
2019-05-17T19:54:59.125Z,8.87
2019-05-17T19:57:29.167Z,8.40
2019-05-17T19:59:59.349Z,8.13
2019-05-17T20:02:29.533Z,9.00
2019-05-17T20:04:59.741Z,8.27
2019-05-17T20:07:37.121Z,8.07
2019-05-17T20:10:01.877Z,8.07
2019-05-17T20:12:31.994Z,8.10
2019-05-17T20:15:15.995Z,7.70
2019-05-17T20:17:34.240Z,8.30
2019-05-17T20:20:04.683Z,8.17
2019-05-17T20:22:34.844Z,7.90
2019-05-17T20:25:05.301Z,8.27
2019-05-17T20:27:36.188Z,7.87
2019-05-17T20:30:07.369Z,7.83
2019-05-17T20:32:37.635Z,7.93
2019-05-17T20:35:08.491Z,8.50
2019-05-17T20:37:38.583Z,8.33
2019-05-17T20:40:10.453Z,8.53
2019-05-17T20:42:40.570Z,7.40
2019-05-17T20:45:12.162Z,7.10
2019-05-17T20:47:42.354Z,6.83
2019-05-17T20:50:12.766Z,7.90
2019-05-17T20:52:42.955Z,8.07
2019-05-17T20:55:13.244Z,7.27
2019-05-17T20:57:43.401Z,7.47
2019-05-17T21:00:15.036Z,7.20
2019-05-17T21:02:45.227Z,7.10
2019-05-17T21:05:18.526Z,7.67
2019-05-17T21:07:48.751Z,7.80
2019-05-17T21:10:19.346Z,6.90
2019-05-17T21:12:49.545Z,7.67
2019-05-17T21:15:19.814Z,7.23
2019-05-17T21:17:49.880Z,7.67
2019-05-17T21:20:20.552Z,6.47
2019-05-17T21:22:50.630Z,7.00
2019-05-17T21:25:20.810Z,6.80
2019-05-17T21:27:50.931Z,7.93
2019-05-17T21:30:21.090Z,8.80
2019-05-17T21:32:51.074Z,7.47
2019-05-17T21:35:21.243Z,7.03
2019-05-17T21:37:51.272Z,8.07
2019-05-17T21:40:21.482Z,7.73
2019-05-17T21:42:51.596Z,7.23
2019-05-17T21:45:21.823Z,8.53
2019-05-17T21:47:51.889Z,8.17
2019-05-17T21:50:22.044Z,7.87
2019-05-17T21:52:52.219Z,7.40
2019-05-17T21:55:22.383Z,8.47
2019-05-17T21:57:52.580Z,8.00
2019-05-17T22:01:14.921Z,8.00
2019-05-17T22:03:45.267Z,8.27
2019-05-17T22:06:15.658Z,8.10
2019-05-17T22:08:45.837Z,8.57
2019-05-17T22:11:16.038Z,8.83
2019-05-17T22:13:46.519Z,8.67
2019-05-17T22:16:19.914Z,10.50
2019-05-17T22:18:48.785Z,9.30
2019-05-17T22:21:18.908Z,8.27
2019-05-17T22:23:49.056Z,8.77
2019-05-17T22:26:19.313Z,9.13
2019-05-17T22:28:49.487Z,8.77
2019-05-17T22:31:19.769Z,8.73
2019-05-17T22:33:49.829Z,8.53
2019-05-17T22:36:19.950Z,9.13
2019-05-17T22:38:50.179Z,8.83
2019-05-17T22:41:20.230Z,8.63
2019-05-17T22:43:50.329Z,9.13
2019-05-17T22:46:35.078Z,8.50
2019-05-17T22:48:52.322Z,8.97
2019-05-17T22:51:22.582Z,9.60
2019-05-17T22:53:52.729Z,9.03
2019-05-17T22:56:22.845Z,9.20
2019-05-17T22:58:53.022Z,9.53
2019-05-17T23:01:23.119Z,9.63
2019-05-17T23:03:53.228Z,8.80
2019-05-17T23:06:23.336Z,9.47
2019-05-17T23:08:53.501Z,9.07
2019-05-17T23:11:23.742Z,8.70
2019-05-17T23:13:53.853Z,10.07
2019-05-17T23:16:23.899Z,8.93
2019-05-17T23:19:09.879Z,8.40
2019-05-17T23:21:40.242Z,8.13
2019-05-17T23:24:10.461Z,8.97
2019-05-17T23:26:40.679Z,8.80
2019-05-17T23:29:10.676Z,8.50
2019-05-17T23:31:40.719Z,8.97
2019-05-17T23:34:10.832Z,8.93
2019-05-17T23:36:40.861Z,7.83
2019-05-17T23:39:11.026Z,8.50
2019-05-17T23:41:41.248Z,8.33
2019-05-17T23:44:11.475Z,8.57
2019-05-17T23:46:41.887Z,8.90
2019-05-17T23:49:11.969Z,9.57
2019-05-17T23:51:42.108Z,8.75
2019-05-17T23:54:12.089Z,9.00
2019-05-17T23:56:42.253Z,8.57
2019-05-17T23:59:12.405Z,8.93
